Time;durP1;ratioP1;P1;durP2;ratioP2;P2;SDS_P1;SDS_P2;PMS_P1;PMS_P2;Temp;Humidity;BMP_temperature;BMP_pressure;BME280_temperature;BME280_humidity;BME280_pressure;Samples;Min_cycle;Max_cycle;Signal;HPM_P1;HPM_P2
2024/03/07 00:00:17;;;;;;;54.43;36.40;;;2.30;91.90;;;;;;5094069;28;20194;-86
2024/03/07 00:02:44;;;;;;;52.40;36.43;;;2.30;91.90;;;;;;5093873;28;20182;-86
2024/03/07 00:05:10;;;;;;;54.27;36.20;;;2.30;91.90;;;;;;5075644;28;20178;-87
2024/03/07 00:07:36;;;;;;;52.30;35.07;;;2.30;92.00;;;;;;5094143;28;20171;-86
2024/03/07 00:10:03;;;;;;;54.50;35.93;;;2.30;92.00;;;;;;5093704;28;20258;-86
2024/03/07 00:12:29;;;;;;;50.53;34.67;;;2.30;92.00;;;;;;5075592;28;20705;-87
2024/03/07 00:14:55;;;;;;;50.17;35.23;;;2.30;92.00;;;;;;5075621;28;20198;-86
2024/03/07 00:17:21;;;;;;;55.33;35.90;;;2.30;92.00;;;;;;5093672;28;20809;-86
2024/03/07 00:19:47;;;;;;;51.90;35.33;;;2.20;92.00;;;;;;5075445;28;20202;-87
2024/03/07 00:22:14;;;;;;;48.37;33.93;;;2.20;92.00;;;;;;5093550;28;20179;-86
2024/03/07 00:24:40;;;;;;;54.70;41.50;;;2.20;92.00;;;;;;5075425;28;20170;-87
2024/03/07 00:27:05;;;;;;;55.57;41.53;;;2.20;92.00;;;;;;5093710;28;20245;-86
2024/03/07 00:29:31;;;;;;;60.07;42.50;;;2.30;92.10;;;;;;5075422;28;20601;-87
2024/03/07 00:31:58;;;;;;;49.90;38.87;;;2.30;92.30;;;;;;5093581;28;20197;-87
2024/03/07 00:34:24;;;;;;;56.57;40.70;;;2.50;92.50;;;;;;5093507;28;20265;-87
2024/03/07 00:36:49;;;;;;;58.00;39.67;;;2.60;92.60;;;;;;5094084;28;20206;-87
2024/03/07 00:39:15;;;;;;;56.60;38.97;;;2.70;92.80;;;;;;5093532;28;20205;-87
2024/03/07 00:41:43;;;;;;;48.97;35.33;;;2.80;92.90;;;;;;5093405;28;20190;-86
2024/03/07 00:44:09;;;;;;;54.60;38.13;;;2.90;93.00;;;;;;5075413;28;20232;-86
2024/03/07 00:46:37;;;;;;;52.30;37.87;;;3.00;93.00;;;;;;5093763;28;20174;-87
2024/03/07 00:49:04;;;;;;;54.80;39.17;;;3.10;92.90;;;;;;5093377;28;20590;-87
2024/03/07 00:51:30;;;;;;;51.43;37.30;;;3.10;92.90;;;;;;5093031;28;20248;-86
2024/03/07 00:53:55;;;;;;;55.07;39.63;;;3.10;92.80;;;;;;5093511;28;20163;-87
2024/03/07 00:56:21;;;;;;;56.40;37.87;;;3.10;92.80;;;;;;5093525;28;20175;-87
2024/03/07 00:58:48;;;;;;;54.23;39.30;;;3.20;92.80;;;;;;5093058;28;20199;-86
2024/03/07 01:01:15;;;;;;;58.23;39.83;;;3.20;92.80;;;;;;5075365;28;20201;-86
2024/03/07 01:03:41;;;;;;;53.50;37.50;;;3.20;92.80;;;;;;5074936;28;20171;-88
2024/03/07 01:06:08;;;;;;;53.13;37.70;;;3.30;92.80;;;;;;5075062;28;20200;-86
2024/03/07 01:08:35;;;;;;;45.90;33.93;;;3.40;92.80;;;;;;5075104;28;20220;-86
2024/03/07 01:11:00;;;;;;;51.77;37.77;;;3.40;92.80;;;;;;5075025;28;20187;-87
2024/03/07 01:13:26;;;;;;;50.07;35.37;;;3.50;92.70;;;;;;5075102;28;20194;-86
2024/03/07 01:15:51;;;;;;;57.20;37.77;;;3.50;92.60;;;;;;5075102;28;20185;-86
2024/03/07 01:18:17;;;;;;;51.27;34.53;;;3.60;92.60;;;;;;5093240;28;20194;-86
2024/03/07 01:20:42;;;;;;;42.67;35.43;;;3.70;92.60;;;;;;5075046;28;20667;-86
2024/03/07 01:23:08;;;;;;;47.07;35.43;;;3.70;92.50;;;;;;5093058;28;20204;-87
2024/03/07 01:25:34;;;;;;;51.40;30.30;;;3.70;92.40;;;;;;5092956;28;20176;-86
2024/03/07 01:28:00;;;;;;;40.77;28.30;;;3.80;92.40;;;;;;5093100;28;20253;-86
2024/03/07 01:30:28;;;;;;;45.73;29.67;;;3.80;92.30;;;;;;5092941;28;20193;-86
2024/03/07 01:32:54;;;;;;;40.60;27.53;;;3.80;92.30;;;;;;5075393;28;20191;-85
2024/03/07 01:35:19;;;;;;;41.07;26.67;;;3.80;92.20;;;;;;5096805;28;20174;-87
2024/03/07 01:37:45;;;;;;;39.40;27.70;;;3.90;92.10;;;;;;5096854;28;20179;-86
2024/03/07 01:40:11;;;;;;;39.30;27.93;;;3.90;92.10;;;;;;5079258;28;20204;-86
2024/03/07 01:42:36;;;;;;;39.40;26.23;;;3.90;92.10;;;;;;5096799;28;20675;-86
2024/03/07 01:45:03;;;;;;;43.90;27.13;;;3.90;92.00;;;;;;5078638;28;20183;-86
2024/03/07 01:47:28;;;;;;;42.37;30.53;;;4.00;92.10;;;;;;5096669;28;20171;-86
2024/03/07 01:49:54;;;;;;;39.33;28.03;;;4.00;92.10;;;;;;5079144;28;20203;-87
2024/03/07 01:52:21;;;;;;;44.77;29.43;;;4.10;92.00;;;;;;5096319;28;20262;-87
2024/03/07 01:54:47;;;;;;;46.03;29.60;;;4.10;92.00;;;;;;5078059;28;20265;-85
2024/03/07 01:57:13;;;;;;;52.27;31.03;;;4.10;92.00;;;;;;5096520;28;20666;-87
2024/03/07 01:59:39;;;;;;;46.60;31.07;;;4.10;92.00;;;;;;5078022;28;20223;-86
2024/03/07 02:02:05;;;;;;;50.50;30.00;;;4.20;92.00;;;;;;5096210;28;20250;-86
2024/03/07 02:04:30;;;;;;;45.10;30.03;;;4.10;92.00;;;;;;5096355;28;20705;-86
2024/03/07 02:06:56;;;;;;;47.13;29.47;;;4.20;91.90;;;;;;5078052;28;20167;-86
2024/03/07 02:09:22;;;;;;;47.73;30.03;;;4.20;91.80;;;;;;5096240;28;20179;-87
2024/03/07 02:11:51;;;;;;;49.17;31.80;;;4.20;91.80;;;;;;5077916;28;20691;-87
2024/03/07 02:14:16;;;;;;;44.23;30.53;;;4.20;91.70;;;;;;5096271;28;20262;-87
2024/03/07 02:16:42;;;;;;;48.23;29.10;;;4.30;91.70;;;;;;5077980;28;20207;-86
2024/03/07 02:19:13;;;;;;;41.73;29.30;;;4.30;91.60;;;;;;5077809;28;20804;-86
2024/03/07 02:21:39;;;;;;;48.40;30.77;;;4.30;91.50;;;;;;5095904;28;20566;-86
2024/03/07 02:24:04;;;;;;;47.60;29.40;;;4.30;91.50;;;;;;5095881;28;20172;-86
2024/03/07 02:26:30;;;;;;;46.07;30.00;;;4.30;91.50;;;;;;5077559;28;20170;-86
2024/03/07 02:28:55;;;;;;;49.37;31.30;;;4.30;91.50;;;;;;5077789;28;20182;-86
2024/03/07 02:31:28;;;;;;;50.33;29.80;;;4.40;91.40;;;;;;5095772;28;20173;-86
2024/03/07 02:33:53;;;;;;;43.67;29.70;;;4.40;91.30;;;;;;5095697;28;20204;-86
2024/03/07 02:36:19;;;;;;;48.80;30.90;;;4.30;91.20;;;;;;5077493;28;20599;-85
2024/03/07 02:38:44;;;;;;;53.00;37.40;;;4.40;91.20;;;;;;5077370;28;20190;-86
2024/03/07 02:41:10;;;;;;;54.00;37.03;;;4.30;91.20;;;;;;5096202;28;20265;-85
2024/03/07 02:43:37;;;;;;;43.33;34.70;;;4.30;91.30;;;;;;5095295;28;20254;-86
2024/03/07 02:46:03;;;;;;;54.97;37.47;;;4.30;91.30;;;;;;5076468;28;20672;-86
2024/03/07 02:48:29;;;;;;;52.03;37.53;;;4.30;91.30;;;;;;5095301;28;20174;-85
2024/03/07 02:50:55;;;;;;;55.30;36.87;;;4.40;91.30;;;;;;5077232;28;20181;-87
2024/03/07 02:53:20;;;;;;;45.97;37.77;;;4.40;91.30;;;;;;5095104;28;20201;-85
2024/03/07 02:55:46;;;;;;;53.73;38.87;;;4.40;91.20;;;;;;5095716;28;20562;-87
2024/03/07 02:58:11;;;;;;;50.80;35.90;;;4.40;91.20;;;;;;5077253;28;20186;-87
2024/03/07 03:00:37;;;;;;;55.23;38.00;;;4.30;91.30;;;;;;5095324;28;20248;-87
2024/03/07 03:03:02;;;;;;;51.03;37.57;;;4.30;91.40;;;;;;5095193;28;20272;-86
2024/03/07 03:05:28;;;;;;;51.33;38.70;;;4.30;91.50;;;;;;5095232;28;20717;-86
2024/03/07 03:07:53;;;;;;;52.30;37.80;;;4.30;91.50;;;;;;5077010;28;20179;-87
2024/03/07 03:10:28;;;;;;;48.03;36.17;;;4.30;91.50;;;;;;5095439;28;20175;-86
2024/03/07 03:12:57;;;;;;;48.83;38.00;;;4.30;91.50;;;;;;5095112;28;20219;-86
2024/03/07 03:15:23;;;;;;;48.47;36.03;;;4.30;91.50;;;;;;5094927;28;20173;-86
2024/03/07 03:17:48;;;;;;;51.47;37.87;;;4.30;91.40;;;;;;5076721;28;20720;-86
2024/03/07 03:20:24;;;;;;;48.50;38.27;;;4.30;91.40;;;;;;5094645;28;20251;-85
2024/03/07 03:22:50;;;;;;;53.73;38.70;;;4.30;91.40;;;;;;5076672;28;20610;-86
2024/03/07 03:25:16;;;;;;;53.73;39.90;;;4.30;91.40;;;;;;5078499;28;20644;-86
2024/03/07 03:27:41;;;;;;;57.27;39.77;;;4.30;91.40;;;;;;5078181;28;20177;-85
2024/03/07 03:30:07;;;;;;;52.70;37.70;;;4.30;91.50;;;;;;5096808;28;20181;-85
2024/03/07 03:32:33;;;;;;;55.47;39.17;;;4.30;91.50;;;;;;5096378;28;20209;-85
2024/03/07 03:34:58;;;;;;;56.20;40.00;;;4.30;91.50;;;;;;5096114;28;20175;-86
2024/03/07 03:37:24;;;;;;;55.00;39.13;;;4.30;91.50;;;;;;5096532;28;20745;-85
2024/03/07 03:39:50;;;;;;;53.97;37.77;;;4.30;91.50;;;;;;5077728;28;20342;-86
2024/03/07 03:42:15;;;;;;;49.10;37.60;;;4.30;91.50;;;;;;5077802;28;20194;-86
2024/03/07 03:44:41;;;;;;;58.50;36.13;;;4.30;91.30;;;;;;5077973;28;20260;-86
2024/03/07 03:47:06;;;;;;;44.23;32.27;;;4.30;91.30;;;;;;5077905;28;20223;-85
2024/03/07 03:49:32;;;;;;;42.30;31.53;;;4.30;91.30;;;;;;5096379;28;20760;-86
2024/03/07 03:51:58;;;;;;;41.97;32.23;;;4.20;91.20;;;;;;5078003;28;20225;-86
2024/03/07 03:54:24;;;;;;;41.27;30.10;;;4.20;91.00;;;;;;5078100;28;20312;-86
2024/03/07 03:56:49;;;;;;;32.67;22.00;;;4.10;90.70;;;;;;5077679;28;20264;-85
2024/03/07 03:59:15;;;;;;;31.83;20.90;;;4.10;90.50;;;;;;5095989;28;20205;-87
2024/03/07 04:01:41;;;;;;;28.50;19.93;;;4.10;90.30;;;;;;5077655;28;20276;-86
2024/03/07 04:04:07;;;;;;;37.43;22.03;;;4.10;90.30;;;;;;5096138;28;20166;-86
2024/03/07 04:06:32;;;;;;;30.50;21.53;;;4.00;90.20;;;;;;5096620;28;20582;-85
2024/03/07 04:08:59;;;;;;;27.47;20.83;;;4.00;90.10;;;;;;5077983;28;20670;-85
2024/03/07 04:11:24;;;;;;;34.33;21.53;;;4.00;90.00;;;;;;5095875;28;20263;-86
2024/03/07 04:13:50;;;;;;;23.70;19.13;;;4.00;90.00;;;;;;5096297;28;20173;-86
2024/03/07 04:16:16;;;;;;;26.37;21.00;;;3.90;89.70;;;;;;5077668;28;20175;-85
2024/03/07 04:18:42;;;;;;;25.83;20.17;;;3.90;89.50;;;;;;5096289;28;20314;-85
2024/03/07 04:21:09;;;;;;;24.17;18.93;;;3.90;89.60;;;;;;5096022;28;20179;-86
2024/03/07 04:23:34;;;;;;;21.83;19.50;;;3.90;89.60;;;;;;5096081;28;20636;-86
2024/03/07 04:26:00;;;;;;;27.83;21.20;;;3.90;89.60;;;;;;5077987;28;20209;-87
2024/03/07 04:28:25;;;;;;;29.00;21.33;;;3.90;89.50;;;;;;5096253;28;20642;-86
2024/03/07 04:30:53;;;;;;;24.50;19.33;;;3.80;89.60;;;;;;5078165;28;20655;-86
2024/03/07 04:33:19;;;;;;;29.80;19.73;;;3.80;89.60;;;;;;5077782;28;20249;-85
2024/03/07 04:35:45;;;;;;;28.43;19.73;;;3.70;89.50;;;;;;5095926;28;20216;-85
2024/03/07 04:38:14;;;;;;;28.17;19.93;;;3.70;89.30;;;;;;5096202;28;20250;-85
2024/03/07 04:40:41;;;;;;;25.33;19.90;;;3.70;89.50;;;;;;5096054;28;20191;-88
2024/03/07 04:43:07;;;;;;;26.00;18.70;;;3.60;89.30;;;;;;5077671;28;20198;-88
2024/03/07 04:45:33;;;;;;;21.40;18.80;;;3.60;89.20;;;;;;5096113;28;20166;-86
2024/03/07 04:47:59;;;;;;;18.23;16.63;;;3.40;88.80;;;;;;5096257;28;20173;-86
2024/03/07 04:50:26;;;;;;;22.20;16.67;;;3.20;88.00;;;;;;5096449;28;20250;-86
2024/03/07 04:52:52;;;;;;;23.67;19.43;;;3.10;87.90;;;;;;5096651;28;20282;-86
2024/03/07 04:55:18;;;;;;;22.97;17.37;;;3.00;88.00;;;;;;5078295;28;20647;-85
2024/03/07 04:57:43;;;;;;;19.53;16.17;;;2.90;88.20;;;;;;5078041;28;20203;-87
2024/03/07 05:00:14;;;;;;;26.43;19.10;;;2.80;88.10;;;;;;5096597;28;20200;-86
2024/03/07 05:02:40;;;;;;;23.47;19.77;;;2.80;88.40;;;;;;5078088;28;20685;-86
2024/03/07 05:05:06;;;;;;;24.57;19.43;;;2.80;88.50;;;;;;5095804;28;20208;-85
2024/03/07 05:07:32;;;;;;;24.03;20.17;;;2.70;88.50;;;;;;5096003;28;20166;-86
2024/03/07 05:09:57;;;;;;;28.83;26.20;;;2.70;88.60;;;;;;5100495;28;20178;-85
2024/03/07 05:12:23;;;;;;;32.40;28.93;;;2.60;88.50;;;;;;5099825;28;20198;-86
2024/03/07 05:14:48;;;;;;;31.47;28.30;;;2.70;88.80;;;;;;5100010;28;20189;-85
2024/03/07 05:17:14;;;;;;;29.80;26.80;;;2.60;88.80;;;;;;5081908;28;20210;-86
2024/03/07 05:19:39;;;;;;;30.90;26.97;;;2.60;88.90;;;;;;5100592;28;20204;-86
2024/03/07 05:22:05;;;;;;;30.40;20.13;;;2.50;88.80;;;;;;5081828;28;20187;-85
2024/03/07 05:24:32;;;;;;;23.83;19.63;;;2.50;88.80;;;;;;5100039;28;20528;-85
2024/03/07 05:26:58;;;;;;;22.23;18.47;;;2.50;88.70;;;;;;5081701;28;20266;-86
2024/03/07 05:29:24;;;;;;;27.60;24.60;;;2.50;88.80;;;;;;5081709;28;20269;-86
2024/03/07 05:31:49;;;;;;;28.43;25.50;;;2.50;88.70;;;;;;5099746;28;20225;-86
2024/03/07 05:34:18;;;;;;;29.43;26.33;;;2.50;88.70;;;;;;5081287;28;20549;-86
2024/03/07 05:36:47;;;;;;;29.40;26.20;;;2.50;88.70;;;;;;5100018;28;20198;-86
2024/03/07 05:39:14;;;;;;;32.43;26.73;;;2.40;88.60;;;;;;5099443;28;20254;-86
2024/03/07 05:41:41;;;;;;;33.07;27.37;;;2.50;88.60;;;;;;5099986;28;20206;-85
2024/03/07 05:44:10;;;;;;;30.93;27.83;;;2.50;88.70;;;;;;5081826;28;20171;-86
2024/03/07 05:46:50;;;;;;;30.73;27.77;;;2.40;88.60;;;;;;5099578;28;20178;-85
2024/03/07 05:49:20;;;;;;;33.13;29.60;;;2.40;88.50;;;;;;5081834;28;20166;-85
2024/03/07 05:51:47;;;;;;;31.03;24.93;;;2.40;88.50;;;;;;5081250;28;20206;-87
2024/03/07 05:54:12;;;;;;;28.37;25.67;;;2.30;88.10;;;;;;5081341;28;20212;-87
2024/03/07 05:56:39;;;;;;;29.23;26.23;;;2.30;88.10;;;;;;5100200;28;20167;-86
2024/03/07 05:59:07;;;;;;;27.40;24.80;;;2.30;88.20;;;;;;5099458;28;20281;-86
2024/03/07 06:01:34;;;;;;;29.00;25.93;;;2.30;88.00;;;;;;5081601;28;20171;-88
2024/03/07 06:04:00;;;;;;;24.73;22.60;;;2.30;88.00;;;;;;5100310;28;20249;-85
2024/03/07 06:06:27;;;;;;;28.53;25.53;;;2.30;87.90;;;;;;5081893;28;20209;-87
2024/03/07 06:08:53;;;;;;;27.47;23.30;;;2.30;87.90;;;;;;5100004;28;20525;-87
2024/03/07 06:11:21;;;;;;;27.07;24.57;;;2.30;88.10;;;;;;5099636;28;20178;-86
2024/03/07 06:13:47;;;;;;;30.77;26.50;;;2.30;88.10;;;;;;5082981;28;20171;-89
2024/03/07 06:16:14;;;;;;;29.97;26.87;;;2.30;87.70;;;;;;5099804;28;20199;-88
2024/03/07 06:18:40;;;;;;;30.53;27.30;;;2.30;87.80;;;;;;5080709;28;20175;-85
2024/03/07 06:21:06;;;;;;;31.50;27.37;;;2.30;87.80;;;;;;5078005;28;20206;-86
2024/03/07 06:23:32;;;;;;;30.13;25.97;;;2.30;87.80;;;;;;5096464;28;20193;-86
2024/03/07 06:25:59;;;;;;;29.63;26.77;;;2.30;87.80;;;;;;5078261;28;20680;-85
2024/03/07 06:28:25;;;;;;;30.40;27.40;;;2.30;87.40;;;;;;5096110;28;20185;-85
2024/03/07 06:30:50;;;;;;;29.23;26.23;;;2.30;87.60;;;;;;5096400;28;20647;-86
2024/03/07 06:33:20;;;;;;;32.57;29.50;;;2.30;87.60;;;;;;5078197;28;20685;-85
2024/03/07 06:35:45;;;;;;;29.37;26.47;;;2.30;87.30;;;;;;5096277;28;20175;-85
2024/03/07 06:38:11;;;;;;;29.40;22.70;;;2.30;87.10;;;;;;5078054;28;20170;-86
2024/03/07 06:40:40;;;;;;;25.37;21.60;;;2.30;87.20;;;;;;5095776;28;20202;-85
2024/03/07 06:43:06;;;;;;;21.17;18.30;;;2.30;87.30;;;;;;5077887;28;20263;-84
2024/03/07 06:45:32;;;;;;;24.27;20.27;;;2.30;87.30;;;;;;5078133;28;20182;-86
2024/03/07 06:47:58;;;;;;;27.03;20.10;;;2.30;87.30;;;;;;5096354;28;20196;-85
2024/03/07 06:50:23;;;;;;;25.60;19.37;;;2.30;87.10;;;;;;5078052;28;20658;-85
2024/03/07 06:52:49;;;;;;;18.10;16.33;;;2.30;87.20;;;;;;5077358;28;20210;-87
2024/03/07 06:55:18;;;;;;;24.13;20.53;;;2.30;86.60;;;;;;5077803;28;20171;-86
2024/03/07 06:57:45;;;;;;;25.10;19.70;;;2.30;86.80;;;;;;5095715;28;20203;-86
2024/03/07 07:00:19;;;;;;;20.10;18.00;;;2.30;87.20;;;;;;5077637;28;20213;-85
2024/03/07 07:02:46;;;;;;;20.53;18.40;;;2.30;86.60;;;;;;5077623;28;20255;-85
2024/03/07 07:05:12;;;;;;;21.40;19.10;;;2.30;86.70;;;;;;5095775;28;20254;-86
2024/03/07 07:07:43;;;;;;;26.93;21.63;;;2.30;86.80;;;;;;5095610;28;20687;-85
2024/03/07 07:10:15;;;;;;;23.13;18.30;;;2.30;86.60;;;;;;5095702;28;20258;-86
2024/03/07 07:12:45;;;;;;;23.03;20.07;;;2.30;86.60;;;;;;5095462;28;20289;-85
2024/03/07 07:15:12;;;;;;;19.87;17.53;;;2.40;86.70;;;;;;5077217;28;20186;-86
2024/03/07 07:17:38;;;;;;;25.57;19.43;;;2.30;86.50;;;;;;5077215;28;20604;-86
2024/03/07 07:20:10;;;;;;;19.67;17.67;;;2.30;86.00;;;;;;5077223;28;20690;-86
2024/03/07 07:22:36;;;;;;;28.07;19.87;;;2.40;86.00;;;;;;5095199;28;20214;-85
2024/03/07 07:25:04;;;;;;;22.63;20.17;;;2.40;86.20;;;;;;5077255;28;20182;-85
2024/03/07 07:27:30;;;;;;;24.43;20.47;;;2.50;86.30;;;;;;5076838;28;20590;-85
2024/03/07 07:29:57;;;;;;;19.57;17.37;;;2.50;86.70;;;;;;5077207;28;20174;-85
2024/03/07 07:32:23;;;;;;;21.73;19.37;;;2.60;86.50;;;;;;5076162;28;20344;-85
2024/03/07 07:34:49;;;;;;;20.30;18.07;;;2.50;85.90;;;;;;5095115;28;20656;-85
2024/03/07 07:37:14;;;;;;;21.23;18.93;;;2.50;85.80;;;;;;5076819;28;20179;-86
2024/03/07 07:39:40;;;;;;;20.30;18.30;;;2.60;85.50;;;;;;5076906;28;20289;-87
2024/03/07 07:42:05;;;;;;;22.20;19.20;;;2.60;85.10;;;;;;5094958;28;20209;-85
2024/03/07 07:44:32;;;;;;;21.17;18.97;;;2.60;85.20;;;;;;5095526;28;20178;-85
2024/03/07 07:46:58;;;;;;;31.67;28.40;;;2.70;85.10;;;;;;5077205;28;20189;-85
2024/03/07 07:49:23;;;;;;;30.50;27.63;;;2.80;85.00;;;;;;5076862;28;20554;-85
2024/03/07 07:51:49;;;;;;;28.57;26.07;;;2.80;85.20;;;;;;5095105;28;20297;-85
2024/03/07 07:54:15;;;;;;;28.57;25.90;;;2.80;84.90;;;;;;5095190;28;20175;-85
2024/03/07 07:56:40;;;;;;;29.50;26.97;;;2.80;84.50;;;;;;5076710;28;20183;-86
2024/03/07 07:59:06;;;;;;;30.30;27.30;;;2.80;84.60;;;;;;5076627;28;20270;-85
2024/03/07 08:01:34;;;;;;;31.23;28.23;;;2.80;84.40;;;;;;5094773;28;20163;-87
2024/03/07 08:04:00;;;;;;;32.10;28.57;;;2.90;84.70;;;;;;5077690;28;20229;-85
2024/03/07 08:06:26;;;;;;;29.80;27.10;;;2.80;84.10;;;;;;5095456;28;20539;-86
2024/03/07 08:08:51;;;;;;;30.83;28.07;;;2.90;84.00;;;;;;5095454;28;20199;-86
2024/03/07 08:11:17;;;;;;;27.83;25.37;;;2.90;84.00;;;;;;5095262;28;20281;-86
2024/03/07 08:13:43;;;;;;;31.50;28.47;;;2.90;83.70;;;;;;5077010;28;20186;-85
2024/03/07 08:16:11;;;;;;;28.43;26.00;;;2.90;83.70;;;;;;5094837;28;20550;-85
2024/03/07 08:18:36;;;;;;;27.47;24.97;;;3.00;83.70;;;;;;5076808;28;20173;-85
2024/03/07 08:21:02;;;;;;;27.17;24.63;;;3.00;83.30;;;;;;5094756;28;20195;-86
2024/03/07 08:23:29;;;;;;;31.53;28.23;;;3.00;83.20;;;;;;5094380;28;20186;-87
2024/03/07 08:25:55;;;;;;;30.73;27.83;;;3.10;83.30;;;;;;5094265;28;20170;-86
2024/03/07 08:28:20;;;;;;;29.83;26.97;;;3.20;83.70;;;;;;5076032;28;20177;-86
2024/03/07 08:30:46;;;;;;;30.40;27.50;;;3.20;83.20;;;;;;5076709;28;20186;-85
2024/03/07 08:33:13;;;;;;;30.37;27.50;;;3.20;82.60;;;;;;5076039;28;20194;-87
2024/03/07 08:35:38;;;;;;;30.80;27.97;;;3.30;82.40;;;;;;5094404;28;20258;-87
2024/03/07 08:38:04;;;;;;;28.53;25.73;;;3.20;82.70;;;;;;5076606;28;20213;-87
2024/03/07 08:40:32;;;;;;;29.67;26.83;;;3.20;82.80;;;;;;5094166;28;20187;-86
2024/03/07 08:42:58;;;;;;;30.80;27.77;;;3.20;82.50;;;;;;5075850;28;20551;-85
2024/03/07 08:45:25;;;;;;;30.00;27.00;;;3.30;82.80;;;;;;5094173;28;20175;-85
2024/03/07 08:47:52;;;;;;;32.80;29.67;;;3.30;82.80;;;;;;5093936;28;20542;-86
2024/03/07 08:50:18;;;;;;;22.53;20.20;;;3.40;82.60;;;;;;5094508;28;20164;-86
2024/03/07 08:52:45;;;;;;;27.43;21.60;;;3.40;82.30;;;;;;5075892;28;20210;-85
2024/03/07 08:55:14;;;;;;;22.53;18.93;;;3.50;82.80;;;;;;5075957;28;20175;-85
2024/03/07 08:57:48;;;;;;;22.83;20.43;;;3.60;82.60;;;;;;5077341;28;20225;-86
2024/03/07 09:00:29;;;;;;;21.90;19.73;;;3.60;82.50;;;;;;5093575;28;20178;-85
2024/03/07 09:02:59;;;;;;;30.50;27.47;;;3.70;82.10;;;;;;5093321;28;20278;-86
2024/03/07 09:05:25;;;;;;;32.50;29.60;;;3.80;81.30;;;;;;5093510;28;20173;-85
2024/03/07 09:07:52;;;;;;;30.33;27.60;;;3.90;80.50;;;;;;5075671;28;20171;-85
2024/03/07 09:10:18;;;;;;;30.87;28.10;;;3.90;80.40;;;;;;5093128;28;20650;-85
2024/03/07 09:12:44;;;;;;;31.03;28.03;;;3.90;80.60;;;;;;5093394;28;20272;-85
2024/03/07 09:15:11;;;;;;;32.50;29.50;;;4.00;81.00;;;;;;5093309;28;20662;-85
2024/03/07 09:17:37;;;;;;;35.57;32.30;;;4.10;81.00;;;;;;5075157;28;20523;-84
2024/03/07 09:20:14;;;;;;;33.07;29.83;;;4.00;80.10;;;;;;5075154;28;20194;-84
2024/03/07 09:22:44;;;;;;;31.60;28.67;;;4.10;80.50;;;;;;5093190;28;20184;-85
2024/03/07 09:25:13;;;;;;;30.93;28.13;;;4.20;80.10;;;;;;5093116;28;20256;-85
2024/03/07 09:27:40;;;;;;;32.10;28.90;;;4.00;79.50;;;;;;5093326;28;20597;-84
2024/03/07 09:30:11;;;;;;;33.40;30.50;;;3.90;79.70;;;;;;5075118;28;20230;-85
2024/03/07 09:32:40;;;;;;;37.17;31.70;;;4.10;80.60;;;;;;5074719;28;20697;-84
2024/03/07 09:35:07;;;;;;;33.73;30.47;;;4.30;79.70;;;;;;5092940;28;20174;-84
2024/03/07 09:37:33;;;;;;;24.97;22.47;;;4.50;80.40;;;;;;5074708;28;20548;-84
2024/03/07 09:39:58;;;;;;;24.57;22.10;;;4.50;79.00;;;;;;5093157;28;20201;-84
2024/03/07 09:42:26;;;;;;;24.77;22.30;;;4.60;79.50;;;;;;5074650;28;20246;-84
2024/03/07 09:44:52;;;;;;;27.90;24.53;;;4.50;78.60;;;;;;5092952;28;20195;-84
2024/03/07 09:47:20;;;;;;;27.43;24.60;;;4.30;79.20;;;;;;5092963;28;20166;-84
2024/03/07 09:49:46;;;;;;;24.77;22.23;;;4.10;78.90;;;;;;5093669;28;20169;-85
2024/03/07 09:52:15;;;;;;;26.50;23.63;;;4.30;79.90;;;;;;5074639;28;20248;-85
2024/03/07 09:54:40;;;;;;;26.23;23.73;;;4.20;79.30;;;;;;5094791;28;20170;-84
2024/03/07 09:57:07;;;;;;;27.20;24.43;;;4.20;79.60;;;;;;5078630;28;20182;-84
2024/03/07 09:59:39;;;;;;;27.97;24.53;;;4.30;80.00;;;;;;5096633;28;20292;-84
2024/03/07 10:02:07;;;;;;;27.53;24.73;;;4.60;80.80;;;;;;5096560;28;20304;-84
2024/03/07 10:04:45;;;;;;;25.90;23.30;;;4.80;79.60;;;;;;5096517;28;20253;-84
2024/03/07 10:07:13;;;;;;;27.57;24.73;;;5.00;79.10;;;;;;5096686;28;20181;-85
2024/03/07 10:09:40;;;;;;;28.87;25.80;;;4.90;77.90;;;;;;5096447;28;20177;-85
2024/03/07 10:12:06;;;;;;;26.47;23.80;;;4.90;78.30;;;;;;5096151;28;20190;-84
2024/03/07 10:14:35;;;;;;;25.87;23.23;;;4.70;78.00;;;;;;5096141;28;20177;-84
2024/03/07 10:17:00;;;;;;;33.93;25.47;;;4.50;78.70;;;;;;5096168;28;20275;-86
2024/03/07 10:19:28;;;;;;;28.67;25.67;;;4.40;78.10;;;;;;5077986;28;20244;-84
2024/03/07 10:21:58;;;;;;;24.77;22.43;;;4.50;79.30;;;;;;5096077;28;20196;-86
2024/03/07 10:24:24;;;;;;;25.07;22.47;;;4.80;79.60;;;;;;5096245;28;20166;-86
2024/03/07 10:26:50;;;;;;;27.93;25.23;;;4.90;76.70;;;;;;5077939;28;20174;-86
2024/03/07 10:29:18;;;;;;;29.37;24.97;;;4.90;77.90;;;;;;5095974;28;20246;-85
2024/03/07 10:31:45;;;;;;;27.80;25.03;;;4.70;77.00;;;;;;5096060;28;20222;-85
2024/03/07 10:34:11;;;;;;;26.37;23.87;;;4.40;77.40;;;;;;5096203;28;20208;-85
2024/03/07 10:36:37;;;;;;;25.43;22.83;;;4.30;78.40;;;;;;5096536;28;20202;-84
2024/03/07 10:39:14;;;;;;;27.63;22.47;;;4.50;78.70;;;;;;5077479;28;20263;-85
2024/03/07 10:41:46;;;;;;;28.27;25.23;;;4.70;77.70;;;;;;5096120;28;20184;-85
2024/03/07 10:44:28;;;;;;;25.40;22.83;;;4.80;78.10;;;;;;5095966;28;20166;-85
2024/03/07 10:46:55;;;;;;;27.23;24.40;;;4.70;77.90;;;;;;5078188;28;20258;-85
2024/03/07 10:49:28;;;;;;;27.93;24.97;;;4.70;80.00;;;;;;5077498;28;20190;-85
2024/03/07 10:52:12;;;;;;;30.60;25.47;;;4.50;78.90;;;;;;5095543;28;20206;-85
2024/03/07 10:55:09;;;;;;;27.33;24.63;;;4.40;78.80;;;;;;5095487;28;20675;-86
2024/03/07 10:57:55;;;;;;;35.17;25.37;;;4.30;80.30;;;;;;5095795;28;20176;-84
2024/03/07 11:00:39;;;;;;;28.53;25.50;;;4.10;80.10;;;;;;5077226;28;20194;-85
2024/03/07 11:03:09;;;;;;;33.97;26.80;;;3.90;80.70;;;;;;5095244;28;20220;-85
2024/03/07 11:05:35;;;;;;;28.57;24.47;;;3.80;81.80;;;;;;5094161;28;20185;-85
2024/03/07 11:08:06;;;;;;;30.13;25.73;;;3.80;82.00;;;;;;5077206;28;20601;-84
2024/03/07 11:10:33;;;;;;;31.70;27.70;;;3.90;82.50;;;;;;5077157;28;20253;-85
2024/03/07 11:13:00;;;;;;;32.77;27.80;;;3.90;82.60;;;;;;5076995;28;20205;-84
2024/03/07 11:15:27;;;;;;;30.93;24.53;;;4.00;83.10;;;;;;5076943;28;20188;-85
2024/03/07 11:17:54;;;;;;;34.43;27.23;;;3.90;82.90;;;;;;5095152;28;20174;-84
2024/03/07 11:20:33;;;;;;;31.93;26.73;;;3.90;83.30;;;;;;5076525;28;20200;-85
2024/03/07 11:22:59;;;;;;;32.77;26.87;;;3.90;83.30;;;;;;5094981;28;20200;-84
2024/03/07 11:25:27;;;;;;;33.77;28.80;;;3.80;82.90;;;;;;5095420;28;20182;-84
2024/03/07 11:27:57;;;;;;;32.10;27.07;;;3.80;83.20;;;;;;5076761;28;20267;-85
2024/03/07 11:30:23;;;;;;;35.20;27.87;;;4.00;84.20;;;;;;5076870;28;20212;-84
2024/03/07 11:32:53;;;;;;;37.47;28.83;;;3.90;83.70;;;;;;5076935;28;20203;-85
2024/03/07 11:35:25;;;;;;;35.30;26.20;;;4.00;83.50;;;;;;5076921;28;20570;-85
2024/03/07 11:37:57;;;;;;;41.03;36.70;;;3.90;83.40;;;;;;5076733;28;20553;-84
2024/03/07 11:40:24;;;;;;;40.40;36.07;;;3.90;83.30;;;;;;5094680;28;20237;-85
2024/03/07 11:42:51;;;;;;;44.90;34.43;;;4.10;83.90;;;;;;5094850;28;20190;-85
2024/03/07 11:45:24;;;;;;;40.23;36.17;;;4.20;84.20;;;;;;5094895;28;20161;-86
2024/03/07 11:48:09;;;;;;;40.27;36.07;;;4.30;83.30;;;;;;5094918;28;20154;-86
2024/03/07 11:50:35;;;;;;;43.53;36.47;;;4.30;83.60;;;;;;5095061;28;20252;-85
2024/03/07 11:53:05;;;;;;;38.47;33.90;;;4.40;83.20;;;;;;5094709;28;20692;-86
2024/03/07 11:55:41;;;;;;;40.70;36.70;;;4.60;83.60;;;;;;5076321;28;20177;-85
2024/03/07 11:58:17;;;;;;;38.23;29.47;;;4.70;83.20;;;;;;5076632;28;20176;-85
2024/03/07 12:00:47;;;;;;;35.33;30.13;;;4.70;82.40;;;;;;5076006;28;20201;-85
2024/03/07 12:03:21;;;;;;;32.77;28.57;;;4.80;82.70;;;;;;5094245;28;20543;-85
2024/03/07 12:05:48;;;;;;;35.73;29.40;;;4.90;82.90;;;;;;5076070;28;20225;-86
2024/03/07 12:08:14;;;;;;;34.33;29.20;;;4.90;82.20;;;;;;5094415;28;20163;-84
2024/03/07 12:10:44;;;;;;;33.90;28.80;;;5.00;81.90;;;;;;5094034;28;20173;-85
2024/03/07 12:13:16;;;;;;;32.60;29.20;;;5.00;81.60;;;;;;5076429;28;20616;-85
2024/03/07 12:15:42;;;;;;;29.60;26.43;;;5.10;81.60;;;;;;5076364;28;20175;-85
2024/03/07 12:18:10;;;;;;;33.87;29.43;;;5.20;81.30;;;;;;5094525;28;20177;-85
2024/03/07 12:20:53;;;;;;;33.27;29.67;;;5.20;81.60;;;;;;5094063;28;20207;-84
2024/03/07 12:23:19;;;;;;;31.47;28.07;;;5.20;81.30;;;;;;5094201;28;20193;-85
2024/03/07 12:25:45;;;;;;;32.40;28.90;;;5.20;81.60;;;;;;5094417;28;20714;-84
2024/03/07 12:28:16;;;;;;;39.07;35.00;;;5.20;81.40;;;;;;5094714;28;20579;-85
2024/03/07 12:30:51;;;;;;;40.00;36.13;;;5.30;81.60;;;;;;5075722;28;20167;-86
2024/03/07 12:33:18;;;;;;;40.27;36.13;;;5.40;81.50;;;;;;5075878;28;20681;-85
2024/03/07 12:35:45;;;;;;;40.17;35.97;;;5.40;81.50;;;;;;5075629;28;20175;-85